Time;durP1;ratioP1;P1;durP2;ratioP2;P2;SDS_P1;SDS_P2;PMS_P1;PMS_P2;Temp;Humidity;BMP_temperature;BMP_pressure;BME280_temperature;BME280_humidity;BME280_pressure;Samples;Min_cycle;Max_cycle;Signal;HPM_P1;HPM_P2
2022/03/31 00:00:42;;;;;;;2.65;1.20;;;4.80;99.50;;;;;;5085946;28;20041;-66
2022/03/31 00:03:15;;;;;;;3.08;1.45;;;4.80;99.70;;;;;;5090889;28;20115;-64
2022/03/31 00:05:41;;;;;;;4.90;1.63;;;4.80;99.80;;;;;;5089645;28;20041;-66
2022/03/31 00:08:13;;;;;;;4.05;1.58;;;4.80;99.90;;;;;;5087057;28;20089;-64
2022/03/31 00:10:50;;;;;;;4.85;1.42;;;4.80;99.90;;;;;;5086415;28;20049;-64
2022/03/31 00:13:19;;;;;;;4.60;1.90;;;4.80;99.90;;;;;;5081818;28;20046;-64
2022/03/31 00:15:45;;;;;;;5.32;1.90;;;4.80;99.90;;;;;;5085671;28;20039;-64
2022/03/31 00:18:13;;;;;;;4.05;1.55;;;4.80;99.90;;;;;;5086629;28;20101;-64
2022/03/31 00:20:39;;;;;;;8.75;2.00;;;4.80;99.90;;;;;;5069119;28;20071;-64
2022/03/31 00:23:08;;;;;;;5.47;1.67;;;4.80;99.90;;;;;;5084123;28;20115;-64
2022/03/31 00:25:34;;;;;;;3.22;1.38;;;4.80;99.90;;;;;;5091161;28;20102;-64
2022/03/31 00:28:03;;;;;;;6.38;1.73;;;4.80;99.90;;;;;;5085300;28;20047;-64
2022/03/31 00:30:29;;;;;;;6.50;2.58;;;4.80;99.90;;;;;;5084383;28;20052;-64
2022/03/31 00:32:55;;;;;;;8.02;2.10;;;4.80;99.90;;;;;;5079198;28;20055;-64
2022/03/31 00:35:21;;;;;;;3.63;1.90;;;4.80;99.90;;;;;;5088438;28;20044;-64
2022/03/31 00:43:00;;;;;;;3.75;1.42;;;4.80;99.90;;;;;;5045322;28;20052;-64
2022/03/31 00:45:34;;;;;;;3.28;1.67;;;4.80;99.90;;;;;;5043483;28;20032;-64
2022/03/31 00:48:02;;;;;;;2.92;1.60;;;4.80;99.90;;;;;;5063466;28;20104;-64
2022/03/31 00:50:30;;;;;;;5.10;1.75;;;4.80;99.90;;;;;;5089476;28;20465;-65
2022/03/31 00:52:57;;;;;;;6.63;2.50;;;4.80;99.90;;;;;;5080064;28;20052;-65
2022/03/31 00:55:23;;;;;;;7.38;2.22;;;4.80;99.90;;;;;;5075196;28;20398;-64
2022/03/31 00:57:55;;;;;;;4.13;2.17;;;4.80;99.90;;;;;;5067592;28;20133;-64
2022/03/31 01:00:22;;;;;;;5.50;1.60;;;4.80;99.90;;;;;;5063465;28;20036;-65
2022/03/31 01:02:49;;;;;;;4.78;1.88;;;4.80;99.90;;;;;;5052877;28;20037;-65
2022/03/31 01:05:18;;;;;;;5.50;1.80;;;4.80;99.90;;;;;;5072727;28;20035;-64
2022/03/31 01:07:44;;;;;;;6.45;2.17;;;4.80;99.90;;;;;;5051033;28;20109;-64
2022/03/31 01:10:13;;;;;;;6.40;2.95;;;4.70;99.90;;;;;;5081691;28;20522;-64
2022/03/31 01:12:41;;;;;;;7.70;2.90;;;4.80;99.90;;;;;;5032208;28;20044;-64
2022/03/31 01:15:09;;;;;;;5.03;2.10;;;4.70;99.90;;;;;;5065377;28;20043;-64
2022/03/31 01:17:40;;;;;;;10.43;2.08;;;4.70;99.90;;;;;;5082303;28;20032;-64
2022/03/31 01:20:08;;;;;;;5.90;2.17;;;4.70;99.90;;;;;;5082696;28;20482;-64
2022/03/31 01:22:35;;;;;;;7.13;2.17;;;4.70;99.90;;;;;;5082183;28;20048;-64
2022/03/31 01:25:06;;;;;;;5.55;1.98;;;4.70;99.90;;;;;;5087544;28;20127;-65
2022/03/31 01:27:36;;;;;;;4.32;1.80;;;4.70;99.90;;;;;;5072827;28;20051;-64
2022/03/31 01:30:06;;;;;;;5.45;2.72;;;4.70;99.90;;;;;;5084403;28;20524;-64
2022/03/31 01:32:33;;;;;;;2.90;1.40;;;4.70;99.90;;;;;;5072637;28;20123;-64
2022/03/31 01:34:59;;;;;;;5.90;2.40;;;4.70;99.90;;;;;;5086259;28;20040;-64
2022/03/31 01:37:26;;;;;;;2.20;1.40;;;4.70;99.90;;;;;;5088508;28;20666;-64
2022/03/31 01:39:52;;;;;;;5.45;1.65;;;4.70;99.90;;;;;;5053968;28;20516;-64
2022/03/31 01:42:18;;;;;;;3.92;1.58;;;4.70;99.90;;;;;;5085737;28;20040;-64
2022/03/31 01:44:45;;;;;;;3.33;1.63;;;4.70;99.90;;;;;;5079401;28;20059;-64
2022/03/31 01:47:15;;;;;;;3.22;1.80;;;4.70;99.90;;;;;;5053328;28;20041;-64
2022/03/31 01:49:41;;;;;;;3.50;1.63;;;4.60;99.90;;;;;;5052274;28;20044;-64
2022/03/31 01:52:07;;;;;;;9.88;2.30;;;4.60;99.90;;;;;;5057405;28;20040;-64
2022/03/31 01:54:34;;;;;;;4.32;1.52;;;4.60;99.90;;;;;;5067881;28;20388;-64
2022/03/31 01:57:01;;;;;;;3.17;1.50;;;4.60;99.90;;;;;;5059458;28;20388;-64
2022/03/31 01:59:36;;;;;;;4.65;1.65;;;4.60;99.90;;;;;;5053971;28;20032;-64
2022/03/31 02:02:04;;;;;;;3.17;1.60;;;4.60;99.90;;;;;;5072739;28;20047;-64
2022/03/31 02:04:31;;;;;;;5.57;1.88;;;4.60;99.90;;;;;;5086167;28;20473;-64
2022/03/31 02:06:58;;;;;;;6.50;2.30;;;4.60;99.90;;;;;;5051907;28;20037;-64
2022/03/31 02:09:24;;;;;;;4.03;1.92;;;4.50;99.90;;;;;;5070345;28;20059;-64
2022/03/31 02:17:18;;;;;;;2.78;1.90;;;4.60;99.90;;;;;;5026077;28;20102;-64
2022/03/31 02:19:45;;;;;;;4.65;1.63;;;4.60;99.90;;;;;;5014847;28;20060;-64
2022/03/31 02:22:12;;;;;;;4.88;1.70;;;4.50;99.90;;;;;;5066456;28;20063;-64
2022/03/31 02:24:39;;;;;;;2.58;1.63;;;4.50;99.90;;;;;;5029320;28;20040;-63
2022/03/31 02:27:06;;;;;;;4.88;1.50;;;4.50;99.90;;;;;;5055451;28;20036;-63
2022/03/31 02:29:33;;;;;;;2.78;1.50;;;4.50;99.90;;;;;;5017037;28;20062;-64
2022/03/31 02:32:00;;;;;;;3.13;1.67;;;4.50;99.90;;;;;;5070065;28;20044;-64
2022/03/31 02:34:26;;;;;;;4.28;1.85;;;4.50;99.90;;;;;;5069892;28;20032;-64
2022/03/31 02:36:52;;;;;;;8.32;1.83;;;4.50;99.90;;;;;;5083103;28;20123;-63
2022/03/31 02:39:19;;;;;;;5.18;1.50;;;4.50;99.90;;;;;;5083279;28;20044;-63
2022/03/31 02:41:45;;;;;;;5.20;1.98;;;4.50;99.90;;;;;;5086875;28;20493;-63
2022/03/31 02:44:11;;;;;;;3.40;1.83;;;4.40;99.90;;;;;;5069409;28;20401;-64
2022/03/31 02:46:41;;;;;;;3.67;1.88;;;4.40;99.90;;;;;;5088491;28;20532;-64
2022/03/31 02:49:10;;;;;;;2.72;1.95;;;4.50;99.90;;;;;;5055112;28;20504;-64
2022/03/31 02:51:37;;;;;;;4.15;2.10;;;4.40;99.90;;;;;;5033397;28;20489;-63
2022/03/31 02:56:48;;;;;;;2.65;1.27;;;4.40;99.90;;;;;;5080853;28;20051;-64
2022/03/31 02:59:15;;;;;;;2.53;1.50;;;4.40;99.90;;;;;;5038403;28;20380;-64
2022/03/31 03:01:43;;;;;;;3.55;1.77;;;4.40;99.90;;;;;;5088528;28;20497;-64
2022/03/31 03:04:11;;;;;;;5.05;1.75;;;4.40;99.90;;;;;;5066386;28;20040;-64
2022/03/31 03:06:38;;;;;;;2.80;1.45;;;4.40;99.90;;;;;;5062550;28;20033;-63
2022/03/31 03:09:05;;;;;;;4.80;2.05;;;4.40;99.90;;;;;;5066161;28;20032;-64
2022/03/31 03:11:32;;;;;;;5.13;2.00;;;4.40;99.90;;;;;;5087873;28;20089;-64
2022/03/31 03:13:58;;;;;;;5.72;1.75;;;4.30;99.90;;;;;;5089683;28;20055;-63
2022/03/31 03:16:25;;;;;;;7.47;2.10;;;4.30;99.90;;;;;;5087964;28;20097;-63
2022/03/31 03:18:52;;;;;;;5.28;1.50;;;4.30;99.90;;;;;;5088092;28;20426;-63
2022/03/31 03:21:20;;;;;;;2.38;1.88;;;4.20;99.90;;;;;;5055049;28;20489;-63
2022/03/31 03:23:48;;;;;;;5.45;2.47;;;4.20;99.90;;;;;;5081913;28;20562;-64
2022/03/31 03:26:15;;;;;;;4.72;2.88;;;4.20;99.90;;;;;;5050929;28;20277;-63
2022/03/31 03:28:42;;;;;;;4.32;3.13;;;4.20;99.90;;;;;;5063244;28;20395;-64
2022/03/31 03:31:09;;;;;;;4.00;2.70;;;4.20;99.90;;;;;;5087154;28;20520;-63
2022/03/31 03:33:36;;;;;;;5.60;3.22;;;4.20;99.90;;;;;;5037520;28;20398;-64
2022/03/31 03:36:05;;;;;;;4.45;3.22;;;4.20;99.90;;;;;;5086345;28;20399;-63
2022/03/31 03:38:32;;;;;;;7.50;3.75;;;4.20;99.90;;;;;;5037615;28;20063;-63
2022/03/31 03:41:10;;;;;;;6.72;3.13;;;4.20;99.90;;;;;;5067441;28;20497;-64
2022/03/31 03:43:36;;;;;;;4.63;3.10;;;4.10;99.90;;;;;;5071419;28;20178;-63
2022/03/31 03:46:03;;;;;;;7.35;3.13;;;4.20;99.90;;;;;;5050821;28;20124;-64
2022/03/31 03:48:30;;;;;;;3.92;3.15;;;4.20;99.90;;;;;;5083668;28;20111;-63
2022/03/31 03:50:56;;;;;;;5.13;3.17;;;4.20;99.90;;;;;;5088865;28;20031;-63
2022/03/31 03:53:22;;;;;;;3.88;2.85;;;4.20;99.90;;;;;;5087481;28;20046;-63
2022/03/31 03:55:50;;;;;;;3.33;2.25;;;4.20;99.90;;;;;;5069879;28;20416;-63
2022/03/31 03:58:17;;;;;;;3.35;1.80;;;4.20;99.90;;;;;;5068372;28;20040;-63
2022/03/31 04:00:47;;;;;;;4.30;2.78;;;4.10;99.90;;;;;;5062289;28;20068;-65
2022/03/31 04:03:18;;;;;;;;;;;4.10;99.90;;;;;;5056037;28;20040;-63
2022/03/31 04:05:45;;;;;;;4.22;2.78;;;4.10;99.90;;;;;;5054142;28;19916;-63
2022/03/31 04:08:13;;;;;;;5.82;2.55;;;4.10;99.90;;;;;;5010629;28;20524;-65
2022/03/31 04:10:40;;;;;;;3.25;2.30;;;4.10;99.90;;;;;;5069522;28;20051;-65
2022/03/31 04:13:07;;;;;;;4.57;2.80;;;4.10;99.90;;;;;;5023290;28;20544;-65
2022/03/31 04:15:36;;;;;;;3.80;2.25;;;4.10;99.90;;;;;;5033310;28;20194;-65
2022/03/31 04:18:05;;;;;;;5.90;2.75;;;4.10;99.90;;;;;;5058540;28;20639;-63
2022/03/31 04:20:32;;;;;;;4.43;2.20;;;4.00;99.90;;;;;;5049164;28;20206;-63
2022/03/31 04:23:00;;;;;;;4.60;2.90;;;4.00;99.90;;;;;;5070603;28;20235;-65
2022/03/31 04:25:29;;;;;;;3.60;2.58;;;4.00;99.90;;;;;;5050764;28;20111;-63
2022/03/31 04:27:57;;;;;;;5.22;2.53;;;4.00;99.90;;;;;;5047355;28;20518;-63
2022/03/31 04:30:24;;;;;;;4.00;2.65;;;4.00;99.90;;;;;;5068467;28;20048;-65
2022/03/31 04:32:56;;;;;;;5.43;2.63;;;3.90;99.90;;;;;;5080633;28;20412;-66
2022/03/31 04:35:23;;;;;;;3.92;2.47;;;3.90;99.90;;;;;;5070482;28;20043;-66
2022/03/31 04:37:50;;;;;;;2.97;2.40;;;3.90;99.90;;;;;;5067928;28;20047;-66
2022/03/31 04:40:21;;;;;;;3.92;2.35;;;3.90;99.90;;;;;;5053253;28;20028;-66
2022/03/31 04:42:50;;;;;;;3.47;2.25;;;3.90;99.90;;;;;;5052021;28;20043;-66
2022/03/31 04:45:17;;;;;;;3.80;2.65;;;3.90;99.90;;;;;;5068087;28;20075;-66
2022/03/31 04:47:43;;;;;;;2.50;2.03;;;3.80;99.90;;;;;;5070139;28;20044;-66
2022/03/31 04:50:13;;;;;;;3.67;2.78;;;3.90;99.90;;;;;;5083837;28;20036;-66
2022/03/31 04:52:40;;;;;;;2.90;2.10;;;3.80;99.90;;;;;;5077246;28;20108;-66
2022/03/31 04:55:06;;;;;;;3.92;2.17;;;3.80;99.90;;;;;;5070773;28;20039;-66
2022/03/31 04:57:32;;;;;;;3.03;2.13;;;3.90;99.90;;;;;;5067720;28;20040;-66
2022/03/31 04:59:59;;;;;;;2.70;1.92;;;3.90;99.90;;;;;;5087309;28;20033;-66
2022/03/31 05:02:25;;;;;;;2.97;1.90;;;3.80;99.90;;;;;;5051573;28;20040;-66
2022/03/31 05:04:52;;;;;;;4.15;2.40;;;3.80;99.90;;;;;;5084005;28;20046;-64
2022/03/31 05:07:19;;;;;;;2.53;1.73;;;3.80;99.90;;;;;;5079748;28;20036;-63
2022/03/31 05:09:48;;;;;;;3.17;1.92;;;3.80;99.90;;;;;;5065485;28;20044;-64
2022/03/31 05:12:15;;;;;;;2.95;1.70;;;3.70;99.90;;;;;;5034746;28;20512;-64
2022/03/31 05:14:49;;;;;;;3.45;1.92;;;3.70;99.90;;;;;;5053004;28;20045;-63
2022/03/31 05:17:16;;;;;;;4.40;2.83;;;3.70;99.90;;;;;;5077228;28;20493;-63
2022/03/31 05:19:43;;;;;;;2.47;1.63;;;3.70;99.90;;;;;;5077838;28;20082;-63
2022/03/31 05:22:10;;;;;;;3.10;1.88;;;3.70;99.90;;;;;;5055016;28;20040;-63
2022/03/31 05:24:41;;;;;;;3.33;1.90;;;3.70;99.90;;;;;;5049085;28;20075;-65
2022/03/31 05:27:08;;;;;;;3.40;2.40;;;3.70;99.90;;;;;;5082983;28;20045;-65
2022/03/31 05:29:35;;;;;;;3.08;1.95;;;3.60;99.90;;;;;;5082764;28;20033;-63
2022/03/31 05:32:02;;;;;;;4.32;2.63;;;3.60;99.90;;;;;;5075570;28;20270;-65
2022/03/31 05:34:29;;;;;;;4.03;1.92;;;3.60;99.90;;;;;;5080861;28;20032;-65
2022/03/31 05:36:55;;;;;;;3.55;2.25;;;3.60;99.90;;;;;;5077634;28;20043;-63
2022/03/31 05:39:24;;;;;;;4.88;2.97;;;3.60;99.90;;;;;;5089691;28;20040;-64
2022/03/31 05:41:50;;;;;;;3.22;2.25;;;3.70;99.90;;;;;;5067135;28;20077;-63
2022/03/31 05:44:19;;;;;;;3.92;2.38;;;3.60;99.90;;;;;;5088392;28;20036;-63
2022/03/31 05:46:46;;;;;;;4.03;2.28;;;3.60;99.90;;;;;;5074841;28;20413;-63
2022/03/31 05:49:12;;;;;;;4.05;2.70;;;3.60;99.90;;;;;;5073255;28;20153;-63
2022/03/31 05:51:39;;;;;;;4.13;2.30;;;3.70;99.90;;;;;;5042544;28;20087;-64
2022/03/31 05:54:06;;;;;;;5.70;2.38;;;3.70;99.90;;;;;;5059076;28;20106;-63
2022/03/31 05:56:34;;;;;;;4.47;3.00;;;3.70;99.90;;;;;;5095637;28;20028;-63
2022/03/31 05:59:01;;;;;;;7.53;2.95;;;3.70;99.90;;;;;;5072167;28;20097;-63
2022/03/31 06:01:27;;;;;;;6.82;2.65;;;3.70;99.90;;;;;;5056091;28;20047;-62
2022/03/31 06:03:55;;;;;;;8.18;3.15;;;3.70;99.90;;;;;;5087192;28;20508;-64
2022/03/31 06:06:23;;;;;;;6.68;3.00;;;3.70;99.90;;;;;;5082530;28;20036;-62
2022/03/31 06:08:50;;;;;;;7.90;2.38;;;3.70;99.90;;;;;;5056219;28;20040;-65
2022/03/31 06:11:17;;;;;;;5.28;2.95;;;3.70;99.90;;;;;;5047654;28;20045;-62
2022/03/31 06:13:47;;;;;;;4.53;2.70;;;3.70;99.90;;;;;;5054671;28;20105;-62
2022/03/31 06:16:14;;;;;;;5.03;2.72;;;3.70;99.90;;;;;;5054388;28;20046;-62
2022/03/31 06:18:42;;;;;;;5.65;2.53;;;3.70;99.90;;;;;;5087300;28;20047;-63
2022/03/31 06:21:10;;;;;;;3.85;2.65;;;3.70;99.90;;;;;;5050744;28;20052;-63
2022/03/31 06:23:37;;;;;;;5.55;2.28;;;3.70;99.90;;;;;;5052061;28;20067;-63
2022/03/31 06:26:04;;;;;;;6.35;2.88;;;3.80;99.90;;;;;;5040775;28;20043;-62
2022/03/31 06:28:34;;;;;;;3.33;2.28;;;3.80;99.90;;;;;;5051904;28;20117;-63
2022/03/31 06:31:01;;;;;;;4.00;2.45;;;3.80;99.90;;;;;;5034312;28;20028;-63
2022/03/31 06:33:27;;;;;;;3.25;2.45;;;3.80;99.90;;;;;;5072106;28;20177;-63
2022/03/31 06:35:58;;;;;;;2.83;2.00;;;3.80;99.90;;;;;;5051548;28;20042;-63
2022/03/31 06:38:24;;;;;;;3.03;2.03;;;3.80;99.90;;;;;;5024334;28;20040;-63
2022/03/31 06:41:06;;;;;;;3.08;2.38;;;3.80;99.90;;;;;;5046929;28;20098;-63
2022/03/31 06:43:35;;;;;;;4.78;2.28;;;3.80;99.90;;;;;;5034924;28;20390;-63
2022/03/31 06:46:02;;;;;;;3.80;2.72;;;3.90;99.90;;;;;;5043188;28;20036;-63
2022/03/31 06:48:32;;;;;;;5.18;3.03;;;3.90;99.90;;;;;;5055306;28;20037;-63
2022/03/31 06:50:59;;;;;;;3.58;2.53;;;3.80;99.90;;;;;;5049953;28;20036;-62
2022/03/31 06:53:26;;;;;;;3.50;2.58;;;3.90;99.90;;;;;;5075323;28;20043;-63
2022/03/31 06:55:56;;;;;;;3.80;2.38;;;3.90;99.90;;;;;;5043722;28;20047;-63
2022/03/31 06:58:25;;;;;;;3.38;2.58;;;3.90;99.90;;;;;;5078618;28;20028;-63
2022/03/31 07:00:53;;;;;;;3.47;2.42;;;3.90;99.90;;;;;;5066945;28;20465;-63
2022/03/31 07:03:20;;;;;;;4.28;2.88;;;3.90;99.90;;;;;;5100513;28;20132;-63
2022/03/31 07:05:47;;;;;;;3.50;2.55;;;3.90;99.90;;;;;;5061237;28;20394;-63
2022/03/31 07:08:14;;;;;;;3.05;2.45;;;3.90;99.90;;;;;;5047897;28;20044;-63
2022/03/31 07:10:41;;;;;;;4.57;2.85;;;3.90;99.90;;;;;;5066180;28;20486;-63
2022/03/31 07:13:07;;;;;;;3.33;2.60;;;3.90;99.90;;;;;;5076417;28;20036;-63
2022/03/31 07:15:35;;;;;;;3.47;2.67;;;3.90;99.90;;;;;;5050634;28;20141;-63
2022/03/31 07:18:05;;;;;;;4.72;2.53;;;3.90;99.90;;;;;;5017971;28;20044;-63
2022/03/31 07:20:34;;;;;;;4.18;2.67;;;3.90;99.90;;;;;;5047755;28;20421;-63
2022/03/31 07:23:04;;;;;;;4.10;3.40;;;3.90;99.90;;;;;;5070653;28;20040;-62
2022/03/31 07:25:31;;;;;;;3.60;2.83;;;3.90;99.90;;;;;;5077655;28;20040;-63
2022/03/31 07:27:58;;;;;;;4.03;3.05;;;3.90;99.90;;;;;;5048868;28;20129;-63
2022/03/31 07:30:25;;;;;;;3.78;2.95;;;3.90;99.90;;;;;;5059258;28;20042;-62
2022/03/31 07:33:01;;;;;;;4.03;3.03;;;3.90;99.90;;;;;;5046803;28;20036;-62
2022/03/31 07:35:31;;;;;;;4.20;2.95;;;3.90;99.90;;;;;;5068512;28;20074;-63
2022/03/31 07:38:05;;;;;;;3.83;2.80;;;3.90;99.90;;;;;;5035560;28;20036;-62
2022/03/31 07:40:32;;;;;;;3.22;2.42;;;3.90;99.90;;;;;;5057278;28;20028;-63
2022/03/31 07:43:01;;;;;;;3.80;2.67;;;3.90;99.90;;;;;;5051222;28;20063;-63
2022/03/31 07:45:28;;;;;;;3.30;2.60;;;4.00;99.90;;;;;;5070162;28;20097;-63
2022/03/31 07:47:56;;;;;;;4.05;3.03;;;3.90;99.90;;;;;;5046749;28;20121;-63
2022/03/31 07:50:23;;;;;;;3.28;2.58;;;3.90;99.90;;;;;;5048637;28;20363;-63
2022/03/31 07:52:50;;;;;;;3.97;3.08;;;3.80;99.90;;;;;;5039959;28;20094;-64
2022/03/31 07:55:26;;;;;;;5.85;3.90;;;3.80;99.90;;;;;;5067419;28;20041;-63
2022/03/31 07:57:53;;;;;;;6.38;5.07;;;3.80;99.90;;;;;;5050199;28;20133;-63
2022/03/31 08:00:21;;;;;;;7.78;5.68;;;3.80;99.90;;;;;;5046323;28;20047;-63
2022/03/31 08:02:49;;;;;;;7.50;5.55;;;3.80;99.90;;;;;;5035973;28;20127;-64
2022/03/31 08:05:18;;;;;;;6.85;5.43;;;3.80;99.90;;;;;;5077445;28;20028;-63
2022/03/31 08:07:45;;;;;;;8.32;6.10;;;3.80;99.90;;;;;;5049472;28;20139;-63
2022/03/31 08:10:12;;;;;;;8.70;4.68;;;3.80;99.90;;;;;;5083173;28;20380;-63
2022/03/31 08:12:40;;;;;;;5.35;4.10;;;3.80;99.90;;;;;;5063410;28;20029;-64
2022/03/31 08:15:14;;;;;;;5.00;4.13;;;3.80;99.90;;;;;;5048028;28;20124;-64
2022/03/31 08:17:41;;;;;;;5.53;4.15;;;3.80;99.90;;;;;;5081031;28;20040;-64
2022/03/31 08:20:13;;;;;;;5.90;4.13;;;3.80;99.90;;;;;;5052038;28;20562;-64
2022/03/31 08:22:41;;;;;;;4.10;3.22;;;3.80;99.90;;;;;;5038489;28;20390;-64
2022/03/31 08:25:08;;;;;;;5.13;3.80;;;3.80;99.90;;;;;;5088598;28;20042;-61
2022/03/31 08:27:35;;;;;;;6.10;4.72;;;3.90;99.90;;;;;;5087494;28;20047;-63
2022/03/31 08:30:06;;;;;;;6.32;4.25;;;3.80;99.90;;;;;;5057711;28;20050;-63
2022/03/31 08:32:39;;;;;;;5.85;4.30;;;3.80;99.90;;;;;;5092482;28;20082;-63
2022/03/31 08:35:08;;;;;;;7.40;4.80;;;3.80;99.90;;;;;;5086299;28;20037;-63
2022/03/31 08:37:36;;;;;;;5.68;3.95;;;3.80;99.90;;;;;;5075905;28;20055;-63
2022/03/31 08:40:04;;;;;;;6.57;4.78;;;3.80;99.90;;;;;;5057226;28;20068;-63
2022/03/31 08:42:32;;;;;;;7.30;4.13;;;3.80;99.90;;;;;;5060498;28;20489;-63
2022/03/31 08:45:00;;;;;;;5.55;4.15;;;3.80;99.90;;;;;;5042846;28;20409;-63
2022/03/31 08:47:31;;;;;;;5.30;4.18;;;3.70;99.90;;;;;;5061625;28;20046;-64
2022/03/31 08:49:58;;;;;;;6.10;4.57;;;3.70;99.90;;;;;;5051688;28;20052;-63
2022/03/31 08:52:26;;;;;;;5.70;4.22;;;3.70;99.90;;;;;;5069651;28;20123;-64
2022/03/31 08:54:53;;;;;;;6.78;4.88;;;3.70;99.90;;;;;;5061150;28;20115;-63
2022/03/31 08:57:20;;;;;;;7.32;5.10;;;3.70;99.90;;;;;;5040859;28;20043;-63
2022/03/31 08:59:47;;;;;;;6.60;4.88;;;3.70;99.90;;;;;;5053709;28;20072;-63
2022/03/31 09:02:30;;;;;;;6.85;5.38;;;3.80;99.90;;;;;;5058409;28;20035;-63
2022/03/31 09:05:05;;;;;;;7.45;5.50;;;3.80;99.90;;;;;;5057680;28;20037;-63
2022/03/31 09:07:32;;;;;;;7.18;5.30;;;3.80;99.90;;;;;;5077229;28;20540;-63
2022/03/31 09:09:59;;;;;;;7.97;5.85;;;3.80;99.90;;;;;;5071556;28;20048;-63
2022/03/31 09:12:35;;;;;;;6.38;4.50;;;3.80;99.90;;;;;;5070974;28;20119;-63
2022/03/31 09:15:09;;;;;;;5.80;4.07;;;3.70;99.90;;;;;;5084965;28;20047;-63
2022/03/31 09:17:36;;;;;;;5.70;3.83;;;3.70;99.90;;;;;;5053642;28;20048;-63
2022/03/31 09:20:07;;;;;;;7.00;4.43;;;3.70;99.90;;;;;;5052387;28;20047;-63
2022/03/31 09:22:48;;;;;;;6.57;4.35;;;3.70;99.90;;;;;;5069909;28;20044;-63
2022/03/31 09:25:29;;;;;;;6.35;4.40;;;3.80;99.90;;;;;;5083177;28;20049;-63
2022/03/31 09:28:01;;;;;;;7.00;4.60;;;3.70;99.90;;;;;;5055941;28;20489;-63
2022/03/31 09:30:30;;;;;;;5.47;3.83;;;3.70;99.90;;;;;;5062893;28;20040;-63
2022/03/31 09:32:59;;;;;;;7.25;5.25;;;3.60;99.90;;;;;;5055073;28;20549;-63
2022/03/31 09:35:25;;;;;;;5.45;4.43;;;3.60;99.90;;;;;;5036187;28;20301;-63
2022/03/31 09:37:55;;;;;;;7.00;4.53;;;3.50;99.90;;;;;;5082693;28;20043;-63
2022/03/31 09:40:22;;;;;;;6.82;5.15;;;3.50;99.90;;;;;;5049450;28;20033;-63
2022/03/31 09:43:00;;;;;;;5.70;4.43;;;3.50;99.90;;;;;;5064876;28;20089;-63
2022/03/31 09:45:42;;;;;;;10.18;4.90;;;3.50;99.90;;;;;;5073701;28;20034;-63
2022/03/31 09:48:23;;;;;;;7.63;5.47;;;3.50;99.90;;;;;;5049685;28;20114;-63
2022/03/31 09:50:53;;;;;;;7.45;5.63;;;3.50;99.90;;;;;;5077367;28;20382;-63
2022/03/31 09:53:22;;;;;;;6.18;4.65;;;3.50;99.90;;;;;;5054331;28;20614;-63
2022/03/31 09:55:51;;;;;;;6.82;5.15;;;3.40;99.90;;;;;;5045462;28;20047;-63
2022/03/31 09:58:24;;;;;;;8.95;6.18;;;3.40;99.90;;;;;;5049958;28;20443;-63
2022/03/31 10:00:50;;;;;;;;;;;3.40;99.90;;;;;;5086213;28;20044;-62
2022/03/31 10:03:17;;;;;;;6.97;5.28;;;3.30;99.90;;;;;;5072713;28;19920;-64
2022/03/31 10:05:46;;;;;;;5.65;4.53;;;3.30;99.90;;;;;;5022694;28;20043;-62
2022/03/31 10:08:13;;;;;;;4.13;3.45;;;3.30;99.90;;;;;;5044129;28;20052;-62
2022/03/31 10:10:40;;;;;;;4.85;4.05;;;3.30;99.90;;;;;;5058210;28;20131;-62
2022/03/31 10:13:26;;;;;;;6.35;5.38;;;3.30;99.90;;;;;;5069554;28;20048;-64
2022/03/31 10:16:09;;;;;;;7.25;4.45;;;3.30;99.90;;;;;;5065469;28;20036;-64
2022/03/31 10:18:40;;;;;;;6.78;4.82;;;3.30;99.90;;;;;;5062138;28;20431;-62
2022/03/31 10:21:07;;;;;;;6.78;4.43;;;3.30;99.90;;;;;;5028353;28;20060;-62
2022/03/31 10:26:27;;;;;;;7.45;6.05;;;3.20;99.90;;;;;;5062399;28;20402;-65
2022/03/31 10:29:01;;;;;;;8.13;5.78;;;3.20;99.90;;;;;;5078877;28;20033;-64
2022/03/31 10:31:39;;;;;;;8.40;6.45;;;3.20;99.90;;;;;;5095649;28;20047;-64
2022/03/31 10:34:09;;;;;;;7.18;5.20;;;3.20;99.90;;;;;;5083264;28;20119;-65
2022/03/31 10:36:39;;;;;;;8.98;5.55;;;3.20;99.90;;;;;;5079966;28;20051;-64
2022/03/31 10:39:08;;;;;;;7.30;5.72;;;3.20;99.90;;;;;;5084932;28;20062;-65
2022/03/31 10:41:39;;;;;;;7.63;4.93;;;3.20;99.90;;;;;;5085203;28;20092;-63
2022/03/31 10:44:12;;;;;;;7.43;5.35;;;3.10;99.90;;;;;;5082485;28;20051;-63
2022/03/31 10:47:03;;;;;;;7.45;5.35;;;3.10;99.90;;;;;;5081336;28;20109;-63
2022/03/31 10:49:30;;;;;;;7.22;5.53;;;3.10;99.90;;;;;;5063807;28;20036;-64
2022/03/31 10:51:58;;;;;;;7.13;5.20;;;3.10;99.90;;;;;;5065746;28;20031;-64
2022/03/31 10:54:28;;;;;;;5.65;4.18;;;3.10;99.90;;;;;;5010224;28;20162;-64
2022/03/31 10:57:36;;;;;;;5.20;4.15;;;3.10;99.90;;;;;;5081195;28;20031;-64
2022/03/31 11:00:07;;;;;;;7.93;5.70;;;3.00;99.90;;;;;;5070723;28;20063;-65
2022/03/31 11:02:52;;;;;;;5.70;5.03;;;3.00;99.90;;;;;;5066356;28;20043;-64
2022/03/31 11:05:22;;;;;;;6.43;4.15;;;3.00;99.90;;;;;;5079938;28;20162;-65
2022/03/31 11:07:49;;;;;;;6.38;5.03;;;3.00;99.90;;;;;;5078846;28;20520;-63
2022/03/31 11:10:16;;;;;;;6.05;4.47;;;2.90;99.90;;;;;;5060212;28;20036;-63
2022/03/31 11:12:42;;;;;;;5.05;3.20;;;3.00;99.90;;;;;;5076741;28;20105;-65
2022/03/31 11:15:11;;;;;;;7.95;4.68;;;2.90;99.90;;;;;;5091736;28;20460;-64
2022/03/31 11:17:41;;;;;;;4.72;3.80;;;2.90;99.90;;;;;;5074885;28;20075;-65
2022/03/31 11:20:20;;;;;;;8.45;5.13;;;3.00;99.90;;;;;;5074388;28;20362;-64
2022/03/31 11:22:56;;;;;;;4.53;3.47;;;3.00;99.90;;;;;;5070749;28;20051;-64
2022/03/31 11:25:27;;;;;;;5.30;3.63;;;2.80;99.90;;;;;;5084811;28;20052;-64
2022/03/31 11:27:56;;;;;;;4.88;3.63;;;2.80;99.90;;;;;;5074548;28;20255;-64
2022/03/31 11:30:25;;;;;;;5.22;3.97;;;2.80;99.90;;;;;;5084121;28;20037;-64
2022/03/31 11:32:56;;;;;;;4.30;3.22;;;2.80;99.90;;;;;;5070504;28;20054;-64
2022/03/31 11:35:25;;;;;;;5.07;3.75;;;2.80;99.90;;;;;;5071264;28;20040;-64
2022/03/31 11:37:58;;;;;;;3.95;2.80;;;2.80;99.90;;;;;;5087723;28;20036;-64
2022/03/31 11:40:32;;;;;;;4.63;3.50;;;2.80;99.90;;;;;;5060413;28;20039;-64
2022/03/31 11:43:01;;;;;;;3.95;3.05;;;2.80;99.90;;;;;;5042744;28;20043;-64
2022/03/31 11:45:33;;;;;;;4.10;2.92;;;2.80;99.90;;;;;;5071072;28;20472;-64
2022/03/31 11:48:11;;;;;;;5.20;3.70;;;2.70;99.90;;;;;;5053669;28;20541;-64
2022/03/31 11:50:58;;;;;;;5.05;2.70;;;2.60;99.90;;;;;;5041377;28;20048;-64
2022/03/31 11:53:41;;;;;;;4.72;2.97;;;2.60;99.90;;;;;;5049427;28;20055;-63
2022/03/31 11:56:21;;;;;;;4.68;3.10;;;2.60;99.90;;;;;;5058581;28;20035;-62
2022/03/31 11:58:55;;;;;;;4.53;3.33;;;2.60;99.90;;;;;;5018794;28;20432;-62
2022/03/31 12:01:32;;;;;;;5.03;3.28;;;2.60;99.90;;;;;;5080746;28;20315;-61
2022/03/31 12:03:59;;;;;;;4.20;3.17;;;2.50;99.90;;;;;;5066735;28;20119;-62
2022/03/31 12:06:29;;;;;;;5.20;3.63;;;2.50;99.90;;;;;;5045662;28;20611;-62
2022/03/31 12:08:55;;;;;;;4.82;3.42;;;2.50;99.90;;;;;;5065606;28;20048;-62
2022/03/31 12:11:25;;;;;;;5.13;3.35;;;2.40;99.90;;;;;;5032651;28;20489;-62
2022/03/31 12:13:57;;;;;;;4.35;2.80;;;2.40;99.90;;;;;;5048521;28;20040;-64
2022/03/31 12:16:24;;;;;;;3.97;3.00;;;;;;;;;;5027825;28;20040;-65
2022/03/31 12:19:00;;;;;;;3.75;3.30;;;;;;;;;;5050302;28;20069;-63
2022/03/31 12:21:28;;;;;;;4.75;2.83;;;;;;;;;;5081118;28;20338;-62
2022/03/31 12:23:58;;;;;;;5.20;3.80;;;;;;;;;;5034064;28;20094;-63
2022/03/31 12:26:34;;;;;;;3.85;2.92;;;;;;;;;;5082604;28;20412;-63
2022/03/31 12:29:01;;;;;;;5.43;3.28;;;;;;;;;;5066938;28;20032;-63
2022/03/31 12:31:31;;;;;;;6.80;3.72;;;;;;;;;;5064100;28;20051;-63
2022/03/31 12:33:58;;;;;;;4.75;3.17;;;;;;;;;;5064838;28;20145;-63
2022/03/31 12:36:27;;;;;;;4.80;3.03;;;;;;;;;;5050962;28;20037;-63
2022/03/31 12:38:54;;;;;;;3.53;2.78;;;;;;;;;;5083644;28;20352;-63
2022/03/31 12:41:33;;;;;;;5.60;3.05;;;;;;;;;;5063157;28;20032;-63
2022/03/31 12:44:07;;;;;;;4.88;3.30;;;;;;;;;;5097480;28;20041;-62
2022/03/31 12:46:40;;;;;;;4.13;3.13;;;;;;;;;;5067405;28;20040;-62
2022/03/31 12:49:15;;;;;;;6.70;3.50;;;;;;;;;;5057436;28;20091;-63
2022/03/31 12:51:43;;;;;;;3.97;2.70;;;;;;;;;;5057638;28;20076;-63
2022/03/31 12:54:26;;;;;;;4.18;2.65;;;;;;;;;;5058377;28;20063;-63
2022/03/31 12:56:57;;;;;;;2.88;2.28;;;;;;;;;;5083317;28;20036;-63
2022/03/31 12:59:26;;;;;;;4.05;3.03;;;;;;;;;;5080216;28;20298;-63
2022/03/31 13:01:58;;;;;;;3.80;2.60;;;;;;;;;;5092742;28;20036;-62
2022/03/31 13:04:25;;;;;;;4.93;2.65;;;;;;;;;;5085855;28;20331;-63
2022/03/31 13:06:52;;;;;;;4.78;2.80;;;;;;;;;;5073232;28;20032;-62
2022/03/31 13:09:24;;;;;;;3.65;2.65;;;;;;;;;;5049692;28;20104;-62
2022/03/31 13:11:53;;;;;;;3.45;2.45;;;;;;;;;;5073393;28;20079;-64
2022/03/31 13:14:23;;;;;;;3.03;2.45;;;;;;;;;;5047149;28;20032;-62
2022/03/31 13:16:50;;;;;;;3.00;2.42;;;;;;;;;;5082670;28;20044;-62
2022/03/31 13:19:21;;;;;;;4.10;2.60;;;;;;;;;;5044239;28;20032;-62
2022/03/31 13:21:48;;;;;;;4.70;2.75;;;;;;;;;;5063289;28;20048;-64
2022/03/31 13:24:16;;;;;;;4.75;2.60;;;;;;;;;;5071725;28;20032;-64
2022/03/31 13:26:44;;;;;;;4.43;2.83;;;;;;;;;;5045670;28;20040;-62
2022/03/31 13:29:11;;;;;;;4.57;2.63;;;;;;;;;;5032463;28;20052;-63
2022/03/31 13:31:43;;;;;;;4.07;3.10;;;;;;;;;;5058591;28;20454;-64
2022/03/31 13:34:11;;;;;;;;;;;;;;;;;;5053007;28;20493;-62